Time;durP1;ratioP1;P1;durP2;ratioP2;P2;SDS_P1;SDS_P2;PMS_P1;PMS_P2;Temp;Humidity;BMP_temperature;BMP_pressure;BME280_temperature;BME280_humidity;BME280_pressure;Samples;Min_cycle;Max_cycle;Signal;HPM_P1;HPM_P2
2021/11/07 00:00:28;;;;;;;15.30;11.57;;;10.50;99.90;;;;;;5005618;28;20516;-66
2021/11/07 00:03:07;;;;;;;14.43;10.90;;;10.50;99.90;;;;;;5023822;28;20068;-66
2021/11/07 00:05:41;;;;;;;14.55;10.02;;;10.50;99.90;;;;;;5015293;28;20040;-66
2021/11/07 00:10:52;;;;;;;11.55;8.75;;;10.60;99.90;;;;;;5019497;28;20521;-66
2021/11/07 00:13:23;;;;;;;12.02;9.15;;;10.50;99.90;;;;;;5002661;28;20108;-66
2021/11/07 00:15:50;;;;;;;11.90;7.45;;;10.60;99.90;;;;;;5015205;28;20561;-66
2021/11/07 00:18:18;;;;;;;8.25;5.95;;;10.60;99.90;;;;;;5008955;28;20049;-66
2021/11/07 00:21:10;;;;;;;13.38;7.45;;;10.70;99.90;;;;;;5015691;28;20117;-66
2021/11/07 00:26:17;;;;;;;12.27;6.75;;;10.70;99.90;;;;;;4998165;28;20466;-66
2021/11/07 00:28:48;;;;;;;10.35;6.13;;;10.80;99.90;;;;;;5017880;28;20073;-66
2021/11/07 00:31:23;;;;;;;10.27;6.20;;;10.70;99.90;;;;;;5022480;28;20498;-66
2021/11/07 00:34:16;;;;;;;10.60;6.95;;;10.80;99.90;;;;;;5027527;28;20088;-66
2021/11/07 00:36:41;;;;;;;15.52;8.15;;;10.70;99.90;;;;;;5020325;28;20170;-66
2021/11/07 00:39:18;;;;;;;9.07;7.93;;;10.70;99.90;;;;;;5017686;28;20045;-66
2021/11/07 00:44:31;;;;;;;10.50;7.65;;;10.70;99.90;;;;;;5026394;28;20049;-67
2021/11/07 00:49:50;;;;;;;;;;;10.70;99.90;;;;;;5023643;28;20096;-66
2021/11/07 00:52:32;;;;;;;14.35;7.57;;;10.70;99.90;;;;;;5018902;28;19971;-66
2021/11/07 00:58:04;;;;;;;12.25;7.10;;;10.70;99.90;;;;;;4961294;28;20050;-67
2021/11/07 01:03:03;;;;;;;20.70;7.07;;;10.70;99.90;;;;;;5019480;28;20042;-67
2021/11/07 01:05:32;;;;;;;12.95;4.63;;;10.70;99.90;;;;;;5023588;28;20041;-67
2021/11/07 01:07:58;;;;;;;12.85;4.68;;;10.70;99.90;;;;;;5022267;28;20037;-67
2021/11/07 01:10:26;;;;;;;18.05;6.00;;;10.70;99.90;;;;;;5025427;28;20048;-67
2021/11/07 01:12:53;;;;;;;14.85;5.05;;;10.80;99.90;;;;;;5020847;28;20034;-67
2021/11/07 01:15:20;;;;;;;17.40;4.78;;;10.80;99.90;;;;;;5011589;28;20037;-68
2021/11/07 01:17:46;;;;;;;13.82;5.22;;;10.80;99.90;;;;;;5021894;28;20033;-67
2021/11/07 01:20:13;;;;;;;15.60;5.85;;;10.80;99.90;;;;;;5030203;28;20048;-67
2021/11/07 01:25:17;;;;;;;10.88;4.80;;;10.80;99.90;;;;;;5005332;28;20049;-68
2021/11/07 01:27:45;;;;;;;15.13;5.47;;;10.80;99.90;;;;;;5022627;28;20490;-68
2021/11/07 01:30:20;;;;;;;15.52;5.50;;;10.80;99.90;;;;;;5011711;28;20423;-68
2021/11/07 01:32:51;;;;;;;15.88;5.05;;;10.90;99.90;;;;;;5021999;28;20048;-67
2021/11/07 01:35:25;;;;;;;12.32;4.38;;;10.90;99.90;;;;;;5012407;28;20108;-67
2021/11/07 01:38:11;;;;;;;13.70;4.50;;;10.90;99.90;;;;;;5020211;28;20428;-67
2021/11/07 01:40:58;;;;;;;18.88;5.28;;;10.90;99.90;;;;;;5007193;28;20046;-67
2021/11/07 01:43:24;;;;;;;15.40;5.05;;;10.90;99.90;;;;;;5021309;28;20038;-66
2021/11/07 01:46:33;;;;;;;18.10;4.60;;;10.90;99.90;;;;;;5029417;28;20363;-66
2021/11/07 01:48:54;;;;;;;20.65;4.78;;;10.90;99.90;;;;;;5012697;28;20045;-66
2021/11/07 01:51:21;;;;;;;18.48;5.03;;;10.90;99.90;;;;;;5009316;28;20182;-66
2021/11/07 01:53:48;;;;;;;20.55;5.35;;;11.00;99.90;;;;;;5005260;28;20371;-66
2021/11/07 01:56:15;;;;;;;21.88;5.40;;;11.00;99.90;;;;;;5027311;28;20167;-66
2021/11/07 01:58:44;;;;;;;21.00;5.63;;;11.10;99.90;;;;;;5020745;28;20033;-66
2021/11/07 02:01:10;;;;;;;21.83;5.65;;;11.00;99.90;;;;;;5025337;28;20054;-65
2021/11/07 02:03:37;;;;;;;25.30;5.53;;;11.00;99.90;;;;;;5025183;28;20025;-66
2021/11/07 02:06:04;;;;;;;20.25;5.47;;;11.00;99.90;;;;;;5027806;28;20046;-65
2021/11/07 02:08:30;;;;;;;21.92;5.20;;;11.10;99.90;;;;;;5023679;28;20126;-65
2021/11/07 02:10:57;;;;;;;24.05;5.45;;;11.10;99.90;;;;;;5025566;28;20077;-65
2021/11/07 02:13:24;;;;;;;21.02;5.75;;;11.10;99.90;;;;;;5029488;28;20029;-65
2021/11/07 02:15:51;;;;;;;23.20;6.30;;;11.00;99.90;;;;;;5026086;28;20041;-65
2021/11/07 02:18:17;;;;;;;20.30;5.68;;;11.00;99.90;;;;;;5028834;28;20478;-65
2021/11/07 02:20:45;;;;;;;16.83;4.78;;;11.00;99.90;;;;;;5023149;28;20048;-65
2021/11/07 02:23:15;;;;;;;25.75;5.53;;;11.00;99.90;;;;;;5024939;28;20033;-65
2021/11/07 02:25:44;;;;;;;25.83;5.82;;;10.90;99.90;;;;;;5006036;28;20128;-65
2021/11/07 02:28:12;;;;;;;24.20;5.85;;;10.90;99.90;;;;;;5011639;28;20056;-65
2021/11/07 02:30:39;;;;;;;21.45;5.75;;;11.00;99.90;;;;;;5016729;28;20064;-65
2021/11/07 02:33:06;;;;;;;19.23;5.03;;;11.00;99.90;;;;;;5027142;28;20068;-65
2021/11/07 02:35:33;;;;;;;23.95;5.50;;;10.90;99.90;;;;;;5021256;28;20080;-65
2021/11/07 02:38:00;;;;;;;25.60;4.90;;;10.90;99.90;;;;;;5025521;28;20111;-65
2021/11/07 02:40:28;;;;;;;22.08;5.25;;;10.90;99.90;;;;;;5019536;28;20041;-65
2021/11/07 02:42:53;;;;;;;23.27;4.47;;;10.90;99.90;;;;;;5010559;28;20042;-65
2021/11/07 02:45:21;;;;;;;19.90;4.80;;;10.90;99.90;;;;;;5021008;28;20405;-65
2021/11/07 02:47:50;;;;;;;20.48;4.55;;;10.90;99.90;;;;;;5010448;28;20041;-65
2021/11/07 02:50:18;;;;;;;20.63;4.00;;;10.80;99.90;;;;;;5023465;28;20152;-65
2021/11/07 02:52:45;;;;;;;21.13;5.57;;;10.70;99.90;;;;;;5027559;28;20029;-65
2021/11/07 02:55:11;;;;;;;18.38;4.22;;;10.60;99.90;;;;;;5025662;28;20455;-65
2021/11/07 02:57:37;;;;;;;21.95;4.30;;;10.60;99.90;;;;;;5020748;28;20025;-65
2021/11/07 03:00:09;;;;;;;29.52;4.72;;;10.50;99.90;;;;;;5027880;28;20052;-65
2021/11/07 03:02:36;;;;;;;26.17;4.53;;;10.40;99.90;;;;;;5020841;28;20099;-65
2021/11/07 03:05:06;;;;;;;25.95;3.88;;;10.30;99.90;;;;;;5024720;28;20041;-65
2021/11/07 03:07:32;;;;;;;20.08;4.40;;;10.20;99.90;;;;;;5022087;28;20041;-65
2021/11/07 03:09:58;;;;;;;23.92;4.15;;;10.20;99.90;;;;;;5022181;28;20051;-65
2021/11/07 03:12:23;;;;;;;19.55;3.97;;;10.10;99.90;;;;;;5023242;28;20037;-65
2021/11/07 03:14:51;;;;;;;24.20;4.43;;;10.00;99.90;;;;;;5025422;28;20040;-65
2021/11/07 03:17:23;;;;;;;24.00;4.60;;;9.90;99.90;;;;;;5019675;28;20220;-65
2021/11/07 03:19:50;;;;;;;20.45;4.20;;;9.90;99.90;;;;;;5025103;28;20113;-65
2021/11/07 03:22:19;;;;;;;23.00;4.28;;;9.80;99.90;;;;;;5020294;28;20413;-65
2021/11/07 03:24:46;;;;;;;16.75;4.15;;;9.80;99.90;;;;;;5020876;28;20104;-65
2021/11/07 03:27:18;;;;;;;22.73;4.00;;;9.70;99.90;;;;;;5017378;28;20124;-65
2021/11/07 03:29:48;;;;;;;30.27;4.47;;;9.70;99.90;;;;;;5026975;28;20075;-65
2021/11/07 03:32:21;;;;;;;22.77;4.60;;;9.60;99.90;;;;;;5020940;28;20083;-65
2021/11/07 03:34:51;;;;;;;24.45;4.15;;;9.60;99.90;;;;;;5026404;28;20041;-65
2021/11/07 03:37:22;;;;;;;19.83;4.13;;;9.60;99.90;;;;;;4997066;28;20057;-65
2021/11/07 03:39:53;;;;;;;21.42;4.35;;;9.60;99.90;;;;;;5024856;28;20042;-65
2021/11/07 03:42:19;;;;;;;23.05;4.07;;;9.60;99.90;;;;;;5020833;28;20033;-65
2021/11/07 03:44:45;;;;;;;22.55;4.40;;;9.50;99.90;;;;;;5029035;28;20033;-65
2021/11/07 03:47:11;;;;;;;26.10;4.72;;;9.50;99.90;;;;;;5005609;28;20447;-65
2021/11/07 03:49:39;;;;;;;21.65;3.88;;;9.50;99.90;;;;;;5003360;28;20414;-65
2021/11/07 03:52:06;;;;;;;22.17;4.90;;;9.30;99.90;;;;;;5021451;28;20506;-65
2021/11/07 03:54:32;;;;;;;24.23;3.72;;;9.40;99.90;;;;;;5019912;28;20061;-65
2021/11/07 03:57:00;;;;;;;27.50;4.18;;;9.40;99.90;;;;;;5009043;28;20096;-65
2021/11/07 03:59:26;;;;;;;23.08;3.75;;;9.30;99.90;;;;;;5019439;28;20502;-65
2021/11/07 04:01:52;;;;;;;20.27;3.63;;;9.30;99.90;;;;;;5025777;28;20124;-65
2021/11/07 04:04:19;;;;;;;18.73;3.78;;;9.30;99.90;;;;;;5017217;28;20040;-65
2021/11/07 04:06:44;;;;;;;24.98;5.50;;;9.30;99.90;;;;;;5025905;28;20037;-65
2021/11/07 04:09:10;;;;;;;24.17;4.68;;;9.30;99.90;;;;;;5001071;28;20520;-65
2021/11/07 04:11:38;;;;;;;21.85;4.28;;;9.20;99.90;;;;;;5027840;28;20046;-65
2021/11/07 04:14:08;;;;;;;23.23;3.95;;;9.20;99.90;;;;;;5004105;28;20045;-65
2021/11/07 04:16:34;;;;;;;21.05;4.05;;;9.20;99.90;;;;;;5022357;28;20038;-65
2021/11/07 04:19:00;;;;;;;24.10;3.97;;;9.20;99.90;;;;;;5020952;28;20086;-65
2021/11/07 04:21:26;;;;;;;19.48;3.55;;;9.20;99.90;;;;;;5029665;28;20033;-65
2021/11/07 04:23:52;;;;;;;20.05;4.05;;;9.20;99.90;;;;;;5018960;28;20114;-65
2021/11/07 04:26:19;;;;;;;26.30;4.47;;;9.20;99.90;;;;;;5022412;28;20189;-65
2021/11/07 04:28:45;;;;;;;22.35;4.43;;;9.20;99.90;;;;;;5024360;28;20041;-65
2021/11/07 04:31:10;;;;;;;18.67;3.53;;;9.20;99.90;;;;;;4993361;28;20123;-65
2021/11/07 04:33:36;;;;;;;21.65;4.28;;;9.20;99.90;;;;;;5024451;28;20477;-65
2021/11/07 04:36:03;;;;;;;24.35;4.53;;;9.30;99.90;;;;;;5020466;28;20049;-65
2021/11/07 04:38:30;;;;;;;20.98;4.13;;;9.30;99.90;;;;;;5022746;28;20420;-65
2021/11/07 04:40:56;;;;;;;25.50;3.95;;;9.30;99.90;;;;;;5018912;28;20099;-65
2021/11/07 04:43:22;;;;;;;22.88;4.00;;;9.30;99.90;;;;;;5025904;28;20069;-65
2021/11/07 04:45:48;;;;;;;23.20;4.22;;;9.30;99.90;;;;;;5017458;28;20034;-65
2021/11/07 04:48:13;;;;;;;19.65;4.25;;;9.40;99.90;;;;;;5023076;28;20029;-65
2021/11/07 04:50:39;;;;;;;22.50;4.07;;;9.40;99.90;;;;;;5016283;28;20481;-65
2021/11/07 04:53:11;;;;;;;24.08;3.55;;;9.40;99.90;;;;;;4984447;28;20054;-65
2021/11/07 04:55:41;;;;;;;22.73;4.28;;;9.40;99.90;;;;;;5002485;28;20037;-65
2021/11/07 04:58:08;;;;;;;24.00;3.55;;;9.30;99.90;;;;;;5003166;28;20041;-65
2021/11/07 05:00:35;;;;;;;17.58;3.42;;;9.40;99.90;;;;;;5015859;28;20120;-65
2021/11/07 05:03:03;;;;;;;16.33;3.47;;;9.40;99.90;;;;;;5024785;28;20033;-65
2021/11/07 05:05:30;;;;;;;22.98;3.67;;;9.40;99.90;;;;;;5001165;28;20061;-65
2021/11/07 05:07:56;;;;;;;19.90;3.65;;;9.40;99.90;;;;;;5026597;28;20033;-65
2021/11/07 05:10:23;;;;;;;18.73;3.60;;;9.50;99.90;;;;;;5024065;28;20054;-65
2021/11/07 05:12:49;;;;;;;20.75;3.97;;;9.40;99.90;;;;;;5018066;28;20045;-65
2021/11/07 05:15:15;;;;;;;22.17;3.92;;;9.50;99.90;;;;;;5024687;28;20120;-65
2021/11/07 05:17:42;;;;;;;23.10;4.00;;;9.50;99.90;;;;;;5017694;28;20061;-65
2021/11/07 05:20:09;;;;;;;15.88;3.40;;;9.40;99.90;;;;;;5024465;28;20156;-65
2021/11/07 05:22:35;;;;;;;17.40;3.85;;;9.40;99.90;;;;;;4998651;28;20521;-65
2021/11/07 05:25:01;;;;;;;20.73;4.70;;;9.30;99.90;;;;;;5024486;28;20187;-65
2021/11/07 05:27:27;;;;;;;23.27;4.90;;;9.30;99.90;;;;;;5020274;28;20052;-65
2021/11/07 05:29:52;;;;;;;24.17;4.03;;;9.20;99.90;;;;;;5023821;28;20459;-65
2021/11/07 05:32:18;;;;;;;23.73;4.32;;;9.10;99.90;;;;;;5017098;28;20551;-65
2021/11/07 05:34:46;;;;;;;27.15;4.85;;;9.10;99.90;;;;;;5024250;28;20065;-65
2021/11/07 05:37:12;;;;;;;18.98;3.70;;;9.10;99.90;;;;;;5018822;28;20065;-65
2021/11/07 05:39:38;;;;;;;23.25;4.00;;;9.10;99.90;;;;;;5025638;28;20549;-65
2021/11/07 05:42:04;;;;;;;19.00;4.18;;;9.00;99.90;;;;;;5012391;28;20068;-66
2021/11/07 05:44:30;;;;;;;27.58;4.90;;;9.00;99.90;;;;;;5024355;28;20045;-65
2021/11/07 05:46:56;;;;;;;21.77;3.67;;;8.90;99.90;;;;;;5014671;28;20111;-65
2021/11/07 05:49:23;;;;;;;21.00;4.45;;;8.90;99.90;;;;;;5017970;28;20257;-66
2021/11/07 05:51:49;;;;;;;23.38;4.47;;;8.90;99.90;;;;;;5020784;28;20041;-65
2021/11/07 05:54:15;;;;;;;22.42;3.38;;;8.80;99.90;;;;;;5014153;28;20073;-66
2021/11/07 05:56:41;;;;;;;23.42;4.07;;;8.80;99.90;;;;;;5008755;28;20048;-66
2021/11/07 05:59:08;;;;;;;20.70;4.22;;;8.80;99.90;;;;;;5000608;28;20038;-65
2021/11/07 06:01:36;;;;;;;20.35;3.88;;;8.80;99.90;;;;;;5024852;28;20033;-66
2021/11/07 06:04:03;;;;;;;22.77;3.63;;;8.90;99.90;;;;;;5002143;28;20049;-65
2021/11/07 06:06:29;;;;;;;20.23;4.05;;;8.90;99.90;;;;;;5025855;28;20033;-66
2021/11/07 06:08:55;;;;;;;26.50;3.85;;;8.90;99.90;;;;;;5022110;28;20041;-65
2021/11/07 06:11:21;;;;;;;20.98;3.97;;;8.90;99.90;;;;;;5021560;28;20065;-66
2021/11/07 06:13:47;;;;;;;23.65;3.58;;;9.00;99.90;;;;;;5003940;28;20293;-65
2021/11/07 06:16:14;;;;;;;11.05;2.20;;;9.00;99.90;;;;;;5002581;28;20046;-65
2021/11/07 06:18:39;;;;;;;15.23;2.38;;;9.10;99.90;;;;;;5020438;28;20053;-65
2021/11/07 06:21:05;;;;;;;10.15;2.03;;;9.00;99.90;;;;;;5025866;28;20620;-65
2021/11/07 06:23:32;;;;;;;14.82;2.03;;;9.00;99.90;;;;;;5021440;28;20042;-65
2021/11/07 06:25:58;;;;;;;10.98;2.47;;;9.00;99.90;;;;;;5026073;28;20095;-65
2021/11/07 06:28:24;;;;;;;9.73;1.83;;;8.90;99.90;;;;;;5027946;28;20049;-65
2021/11/07 06:30:50;;;;;;;11.10;1.77;;;8.80;99.90;;;;;;4999853;28;20042;-65
2021/11/07 06:33:17;;;;;;;17.80;2.42;;;8.70;99.90;;;;;;5023015;28;20320;-65
2021/11/07 06:35:43;;;;;;;14.90;2.08;;;8.70;99.90;;;;;;5002732;28;20069;-65
2021/11/07 06:38:09;;;;;;;12.85;2.20;;;8.60;99.90;;;;;;5027131;28;20068;-65
2021/11/07 06:40:35;;;;;;;13.85;2.00;;;8.60;99.90;;;;;;5019141;28;20044;-65
2021/11/07 06:43:03;;;;;;;20.88;3.08;;;8.60;99.90;;;;;;5024849;28;20060;-65
2021/11/07 06:45:29;;;;;;;18.25;3.00;;;8.50;99.90;;;;;;4998739;28;20104;-65
2021/11/07 06:47:55;;;;;;;14.90;2.67;;;8.50;99.90;;;;;;5023634;28;20080;-65
2021/11/07 06:50:21;;;;;;;17.50;2.40;;;8.50;99.90;;;;;;5016201;28;20026;-65
2021/11/07 06:52:47;;;;;;;16.92;2.80;;;8.40;99.90;;;;;;5025054;28;20045;-65
2021/11/07 06:55:14;;;;;;;17.25;2.95;;;8.40;99.90;;;;;;5015632;28;20401;-65
2021/11/07 06:57:42;;;;;;;17.08;3.05;;;8.40;99.90;;;;;;5025482;28;20037;-65
2021/11/07 07:00:11;;;;;;;16.95;2.80;;;8.40;99.90;;;;;;5012163;28;20069;-65
2021/11/07 07:02:39;;;;;;;13.93;1.92;;;8.30;99.90;;;;;;5019791;28;20049;-65
2021/11/07 07:05:09;;;;;;;24.58;3.47;;;8.30;99.90;;;;;;5019767;28;20465;-65
2021/11/07 07:07:38;;;;;;;16.88;3.17;;;8.30;99.90;;;;;;5008989;28;21377;-65
2021/11/07 07:10:07;;;;;;;15.13;2.53;;;8.30;99.90;;;;;;5028850;28;20041;-65
2021/11/07 07:12:41;;;;;;;16.77;3.05;;;8.40;99.90;;;;;;5019749;28;20457;-66
2021/11/07 07:15:21;;;;;;;13.02;2.38;;;8.40;99.90;;;;;;5000889;28;20301;-65
2021/11/07 07:34:10;;;;;;;17.67;3.38;;;8.50;99.90;;;;;;5020400;28;20549;-65
2021/11/07 07:36:03;;;;;;;18.50;2.03;;;8.50;99.90;;;;;;5006787;28;20057;-65
2021/11/07 07:38:29;;;;;;;19.60;2.95;;;8.40;99.90;;;;;;5017002;28;20050;-65
2021/11/07 07:40:55;;;;;;;15.95;2.72;;;8.40;99.90;;;;;;5022152;28;20041;-65
2021/11/07 07:43:21;;;;;;;21.38;3.40;;;8.40;99.90;;;;;;5002528;28;20049;-65
2021/11/07 07:45:47;;;;;;;15.25;3.47;;;8.50;99.90;;;;;;5022838;28;20060;-65
2021/11/07 07:48:12;;;;;;;21.58;3.10;;;8.60;99.90;;;;;;5014252;28;20124;-65
2021/11/07 07:50:40;;;;;;;18.67;2.67;;;8.60;99.90;;;;;;5024188;28;20103;-65
2021/11/07 07:53:07;;;;;;;22.75;3.60;;;8.60;99.90;;;;;;5014327;28;20045;-65
2021/11/07 07:55:34;;;;;;;15.85;3.08;;;8.70;99.90;;;;;;5020420;28;20117;-65
2021/11/07 07:58:00;;;;;;;17.63;3.00;;;8.70;99.90;;;;;;5021104;28;20108;-65
2021/11/07 08:00:25;;;;;;;21.42;3.10;;;8.70;99.90;;;;;;5023807;28;20045;-65
2021/11/07 08:02:51;;;;;;;14.07;2.40;;;8.70;99.90;;;;;;5018918;28;20065;-65
2021/11/07 08:05:17;;;;;;;22.55;3.20;;;8.80;99.90;;;;;;5030334;28;20033;-65
2021/11/07 08:07:44;;;;;;;19.70;2.97;;;8.80;99.90;;;;;;5019724;28;20056;-65
2021/11/07 08:10:12;;;;;;;18.52;3.03;;;8.90;99.90;;;;;;5000432;28;20658;-65
2021/11/07 08:12:39;;;;;;;15.90;2.83;;;9.10;99.90;;;;;;5012851;28;20553;-65
2021/11/07 08:15:09;;;;;;;16.38;2.90;;;9.40;99.90;;;;;;5022621;28;20458;-65
2021/11/07 08:17:35;;;;;;;16.33;3.33;;;9.70;99.90;;;;;;5007340;28;20038;-65
2021/11/07 08:20:06;;;;;;;15.57;2.50;;;10.00;99.90;;;;;;5016414;28;20522;-65
2021/11/07 08:22:32;;;;;;;21.02;3.28;;;10.40;99.90;;;;;;5003000;28;20045;-65
2021/11/07 08:24:58;;;;;;;16.42;2.85;;;10.80;99.90;;;;;;4996671;28;20049;-65
2021/11/07 08:27:24;;;;;;;18.48;3.10;;;10.90;99.90;;;;;;5018969;28;20476;-65
2021/11/07 08:29:54;;;;;;;17.50;3.13;;;10.90;99.90;;;;;;5020395;28;20064;-65
2021/11/07 08:32:20;;;;;;;20.17;3.58;;;11.00;99.90;;;;;;5021821;28;20063;-65
2021/11/07 08:34:47;;;;;;;15.25;2.72;;;11.20;99.90;;;;;;4998028;28;20100;-65
2021/11/07 08:37:15;;;;;;;18.08;3.50;;;11.60;99.90;;;;;;5010912;28;20470;-65
2021/11/07 08:39:53;;;;;;;20.77;3.60;;;12.00;99.90;;;;;;5021981;28;20073;-65
2021/11/07 08:42:31;;;;;;;17.92;3.15;;;12.30;99.90;;;;;;5023879;28;20116;-65
2021/11/07 09:04:59;;;;;;;14.75;2.65;;;12.70;99.90;;;;;;5025219;28;20045;-65
2021/11/07 09:09:21;;;;;;;7.38;1.55;;;13.20;99.90;;;;;;5008347;28;20045;-65
2021/11/07 09:11:52;;;;;;;8.52;1.77;;;13.20;99.90;;;;;;5019050;28;20268;-66
2021/11/07 09:14:20;;;;;;;11.48;2.40;;;13.40;99.90;;;;;;5024369;28;20045;-66
2021/11/07 09:16:49;;;;;;;9.98;1.70;;;13.70;99.90;;;;;;5016779;28;20049;-65
2021/11/07 09:19:19;;;;;;;10.25;1.65;;;13.80;99.90;;;;;;5020189;28;20045;-66
2021/11/07 09:21:48;;;;;;;10.63;1.73;;;13.70;98.80;;;;;;5013743;28;20125;-66
2021/11/07 09:24:23;;;;;;;12.02;2.00;;;13.60;99.40;;;;;;5025014;28;20037;-66
2021/11/07 09:26:50;;;;;;;12.52;1.83;;;13.70;99.90;;;;;;5017651;28;21482;-66
2021/11/07 09:29:30;;;;;;;11.45;2.30;;;13.80;99.10;;;;;;5023161;28;20095;-66
2021/11/07 09:32:09;;;;;;;11.57;2.67;;;14.00;98.80;;;;;;5020889;28;20041;-66
2021/11/07 09:34:53;;;;;;;11.70;2.15;;;14.10;97.60;;;;;;5030161;28;20045;-66
2021/11/07 09:37:33;;;;;;;11.30;1.97;;;14.30;97.90;;;;;;5020251;28;20069;-66
2021/11/07 09:40:03;;;;;;;11.98;2.30;;;14.30;97.60;;;;;;5029781;28;20065;-66
2021/11/07 09:42:52;;;;;;;11.50;2.28;;;14.20;96.80;;;;;;5019796;28;20038;-66
2021/11/07 09:47:48;;;;;;;13.18;2.67;;;14.30;96.10;;;;;;5022322;28;20478;-66
2021/11/07 09:50:14;;;;;;;15.07;2.67;;;14.30;96.30;;;;;;5030174;28;20045;-66
2021/11/07 09:52:47;;;;;;;14.50;2.58;;;14.40;96.10;;;;;;5020546;28;20461;-66
2021/11/07 09:55:13;;;;;;;16.95;2.85;;;14.50;95.50;;;;;;5029499;28;20053;-66
2021/11/07 09:57:39;;;;;;;15.65;3.05;;;14.10;96.00;;;;;;5005774;28;20057;-66
2021/11/07 10:00:18;;;;;;;15.40;2.72;;;13.90;97.50;;;;;;5026531;28;20144;-66
2021/11/07 10:02:44;;;;;;;15.77;2.72;;;13.80;97.40;;;;;;5005376;28;20037;-66
2021/11/07 10:05:12;;;;;;;15.85;3.53;;;13.70;97.50;;;;;;5009126;28;20048;-66
2021/11/07 10:07:40;;;;;;;13.75;3.15;;;13.70;97.90;;;;;;5020732;28;20084;-66
2021/11/07 10:10:20;;;;;;;16.42;2.97;;;13.60;96.60;;;;;;5027037;28;20112;-66
2021/11/07 10:12:52;;;;;;;15.35;2.72;;;14.00;96.30;;;;;;5021969;28;20049;-66
2021/11/07 10:15:40;;;;;;;13.18;2.50;;;14.30;96.40;;;;;;4999121;28;20057;-66
2021/11/07 10:18:08;;;;;;;15.05;3.20;;;14.00;94.70;;;;;;5020601;28;20068;-66
2021/11/07 10:20:45;;;;;;;14.25;2.70;;;13.60;95.20;;;;;;5026194;28;20104;-66
2021/11/07 10:23:26;;;;;;;11.15;2.13;;;13.40;95.30;;;;;;5007135;28;20060;-66
2021/11/07 10:26:07;;;;;;;14.73;2.72;;;13.10;93.90;;;;;;5031020;28;20130;-66
2021/11/07 10:28:40;;;;;;;12.65;1.92;;;12.80;95.00;;;;;;5020506;28;20045;-66
2021/11/07 10:31:27;;;;;;;11.48;2.50;;;12.60;95.00;;;;;;5010009;28;20049;-66
2021/11/07 10:52:23;;;;;;;13.75;2.50;;;12.00;97.40;;;;;;5029429;28;20080;-67
2021/11/07 10:54:49;;;;;;;12.18;2.10;;;11.80;97.10;;;;;;5020569;28;20144;-67
2021/11/07 10:57:28;;;;;;;15.38;1.98;;;11.70;97.40;;;;;;5007876;28;20529;-67
2021/11/07 11:00:23;;;;;;;13.38;2.00;;;11.70;97.40;;;;;;5019966;28;20042;-67
2021/11/07 11:03:04;;;;;;;15.52;2.42;;;11.70;96.70;;;;;;5028554;28;20045;-67
2021/11/07 11:05:53;;;;;;;17.35;4.20;;;11.70;97.30;;;;;;5018180;28;20065;-67
2021/11/07 11:08:24;;;;;;;11.07;2.38;;;11.60;97.60;;;;;;5002876;28;20053;-67
2021/11/07 11:13:32;;;;;;;17.27;3.63;;;11.40;98.10;;;;;;5011116;28;20443;-67
2021/11/07 11:16:29;;;;;;;12.30;2.42;;;11.40;98.90;;;;;;5021788;28;20323;-67
2021/11/07 11:33:16;;;;;;;11.98;2.58;;;11.60;99.90;;;;;;4999858;28;20107;-66
2021/11/07 11:38:28;;;;;;;14.82;2.60;;;11.70;99.90;;;;;;5022549;28;20464;-66
2021/11/07 11:41:03;;;;;;;14.85;2.35;;;11.60;99.90;;;;;;5002214;28;23479;-66
2021/11/07 11:43:38;;;;;;;13.18;2.00;;;11.50;99.90;;;;;;5024754;28;20514;-66
2021/11/07 11:46:49;;;;;;;14.25;3.15;;;11.30;99.90;;;;;;5023064;28;20046;-66
2021/11/07 11:55:07;;;;;;;14.63;2.60;;;11.50;99.90;;;;;;5021101;28;20049;-66
2021/11/07 12:00:52;;;;;;;13.10;2.83;;;11.50;99.90;;;;;;5025521;28;20068;-66
2021/11/07 12:03:54;;;;;;;15.68;2.75;;;11.50;99.90;;;;;;5019799;28;20054;-66
2021/11/07 12:09:54;;;;;;;14.77;2.72;;;11.20;99.90;;;;;;5015983;28;20106;-66
2021/11/07 12:12:26;;;;;;;16.33;2.70;;;11.10;99.90;;;;;;5018210;28;20156;-66
2021/11/07 12:14:56;;;;;;;15.70;3.00;;;11.00;99.90;;;;;;5008060;28;20083;-66
2021/11/07 12:17:30;;;;;;;17.45;3.03;;;11.00;99.90;;;;;;5019177;28;20057;-66
2021/11/07 12:19:56;;;;;;;19.40;3.40;;;10.90;99.90;;;;;;5026527;28;20041;-66
2021/11/07 12:22:25;;;;;;;18.05;2.65;;;10.90;99.90;;;;;;5019834;28;20037;-66
2021/11/07 12:24:51;;;;;;;20.90;3.15;;;10.90;99.90;;;;;;5027233;28;20044;-66
2021/11/07 12:27:22;;;;;;;17.95;3.80;;;10.90;99.90;;;;;;5023816;28;20052;-65
2021/11/07 12:30:15;;;;;;;20.95;3.40;;;10.90;99.90;;;;;;5022095;28;20075;-66
2021/11/07 12:32:46;;;;;;;17.48;3.35;;;11.00;99.90;;;;;;5010030;28;20345;-65
2021/11/07 12:35:43;;;;;;;16.58;2.92;;;11.30;99.90;;;;;;5024941;28;20037;-66
2021/11/07 12:41:06;;;;;;;25.20;3.45;;;11.30;99.40;;;;;;5026357;28;20057;-66
2021/11/07 12:43:33;;;;;;;13.73;2.40;;;11.30;99.90;;;;;;5021043;28;20033;-66
2021/11/07 12:46:27;;;;;;;15.20;2.83;;;11.30;99.10;;;;;;5009166;28;20065;-66
2021/11/07 12:49:00;;;;;;;14.97;2.77;;;11.30;98.60;;;;;;5017272;28;20038;-66
2021/11/07 12:51:25;;;;;;;13.05;2.65;;;11.20;98.80;;;;;;5026141;28;20338;-66
2021/11/07 12:54:04;;;;;;;19.27;3.70;;;11.20;98.20;;;;;;5005627;28;20057;-66
2021/11/07 12:56:37;;;;;;;16.15;2.83;;;11.10;98.10;;;;;;5026062;28;20073;-66
2021/11/07 12:59:09;;;;;;;21.87;2.93;;;11.00;97.60;;;;;;5018960;28;20041;-66
2021/11/07 13:02:12;;;;;;;17.13;3.08;;;10.90;98.30;;;;;;5028497;28;20037;-66
2021/11/07 13:04:47;;;;;;;22.13;3.65;;;10.80;98.30;;;;;;5018980;28;20053;-66
2021/11/07 13:07:28;;;;;;;20.30;4.00;;;10.80;98.80;;;;;;5027890;28;20052;-66
2021/11/07 13:10:00;;;;;;;14.80;2.40;;;10.70;98.90;;;;;;5019975;28;20047;-66
2021/11/07 13:12:34;;;;;;;17.27;2.90;;;10.70;98.80;;;;;;5022120;28;20125;-66
2021/11/07 13:18:02;;;;;;;12.48;2.38;;;10.50;98.60;;;;;;5027268;28;20305;-66
2021/11/07 13:23:51;;;;;;;16.75;2.60;;;10.40;98.00;;;;;;4946445;28;20083;-66
2021/11/07 13:32:01;;;;;;;16.55;2.85;;;9.90;99.40;;;;;;5021339;28;20056;-66
2021/11/07 13:34:28;;;;;;;;;;;10.00;99.80;;;;;;5025188;28;20053;-66
2021/11/07 13:36:55;;;;;;;13.52;2.25;;;10.00;99.70;;;;;;5018385;28;20373;-66
2021/11/07 13:39:30;;;;;;;19.25;3.90;;;9.90;99.90;;;;;;5022133;28;20263;-66
2021/11/07 13:42:06;;;;;;;16.40;2.88;;;9.90;99.90;;;;;;5002240;28;20048;-66
2021/11/07 13:45:03;;;;;;;17.15;2.13;;;9.80;99.60;;;;;;5027430;28;20072;-66
2021/11/07 13:47:38;;;;;;;7.43;1.30;;;9.80;98.90;;;;;;5017234;28;20045;-66
2021/11/07 13:50:16;;;;;;;9.35;1.77;;;9.80;96.80;;;;;;5003700;28;20049;-66
2021/11/07 13:52:43;;;;;;;9.13;1.90;;;9.70;97.10;;;;;;4999024;28;20104;-66
2021/11/07 13:55:23;;;;;;;8.57;1.73;;;9.80;97.50;;;;;;5005044;28;20049;-65
2021/11/07 13:57:49;;;;;;;11.75;1.70;;;9.80;97.40;;;;;;5002048;28;20379;-65
2021/11/07 14:00:20;;;;;;;10.13;2.00;;;9.80;97.90;;;;;;5022854;28;20037;-66
2021/11/07 14:02:48;;;;;;;12.80;2.47;;;9.90;98.40;;;;;;5016895;28;20040;-65
2021/11/07 14:05:14;;;;;;;10.00;2.55;;;9.90;99.00;;;;;;5008685;28;20057;-66
2021/11/07 14:07:40;;;;;;;13.70;2.05;;;10.00;99.40;;;;;;4998767;28;20084;-65
2021/11/07 14:10:17;;;;;;;16.08;2.35;;;10.00;99.30;;;;;;5026739;28;20090;-66
2021/11/07 14:12:53;;;;;;;18.02;2.67;;;10.00;99.60;;;;;;5017116;28;20084;-68
2021/11/07 14:15:25;;;;;;;16.00;2.97;;;10.00;99.90;;;;;;5022630;28;20037;-65
2021/11/07 14:17:54;;;;;;;20.55;3.25;;;10.00;99.90;;;;;;5017176;28;20038;-64
2021/11/07 14:20:34;;;;;;;15.85;2.75;;;9.90;99.90;;;;;;5031564;28;20034;-64
2021/11/07 14:23:15;;;;;;;13.75;2.45;;;9.90;99.90;;;;;;5021050;28;20063;-64
2021/11/07 14:26:10;;;;;;;15.98;3.17;;;9.90;99.90;;;;;;5027650;28;20068;-67
2021/11/07 14:28:50;;;;;;;;;;;9.90;99.90;;;;;;4993904;28;20129;-67
2021/11/07 14:31:21;;;;;;;21.88;3.50;;;9.80;99.90;;;;;;5026256;28;19921;-67
2021/11/07 14:34:03;;;;;;;19.55;3.15;;;9.80;99.90;;;;;;5024774;28;20091;-67
2021/11/07 14:39:24;;;;;;;22.50;3.40;;;9.90;99.90;;;;;;5021968;28;20046;-66
2021/11/07 14:41:52;;;;;;;19.80;3.25;;;9.90;99.90;;;;;;5022578;28;20046;-66
2021/11/07 14:44:35;;;;;;;23.25;4.25;;;9.90;99.90;;;;;;5024078;28;20056;-66
2021/11/07 14:47:25;;;;;;;21.70;3.50;;;9.90;99.90;;;;;;5026802;28;20048;-67
2021/11/07 14:50:47;;;;;;;16.27;2.50;;;9.80;99.90;;;;;;5001039;28;20049;-66
2021/11/07 14:53:13;;;;;;;15.25;2.38;;;9.70;99.90;;;;;;5003675;28;20068;-67
2021/11/07 14:55:52;;;;;;;17.30;2.70;;;9.50;99.90;;;;;;5008219;28;20575;-66
2021/11/07 14:58:29;;;;;;;10.55;2.65;;;9.40;99.90;;;;;;5018699;28;20046;-67
2021/11/07 15:01:17;;;;;;;14.90;2.25;;;9.30;99.90;;;;;;5028571;28;20044;-66
2021/11/07 15:09:06;;;;;;;12.02;1.90;;;9.20;99.90;;;;;;5020921;28;20485;-67
2021/11/07 15:11:45;;;;;;;9.85;1.88;;;9.20;99.90;;;;;;5022221;28;20133;-66
2021/11/07 15:14:43;;;;;;;7.93;1.48;;;9.20;99.90;;;;;;5014903;28;20041;-67